sensor_id;sensor_type;location;lat;lon;timestamp;temperature;humidity
58469;DHT22;44257;44.804;10.220;2024-02-21T00:01:07;7.50;99.90
58469;DHT22;44257;44.804;10.220;2024-02-21T00:03:33;7.50;99.90
58469;DHT22;44257;44.804;10.220;2024-02-21T00:05:58;7.40;99.90
58469;DHT22;44257;44.804;10.220;2024-02-21T00:08:24;7.40;99.90
58469;DHT22;44257;44.804;10.220;2024-02-21T00:10:50;7.40;99.90
58469;DHT22;44257;44.804;10.220;2024-02-21T00:13:17;7.40;99.90
58469;DHT22;44257;44.804;10.220;2024-02-21T00:15:43;7.40;99.90
58469;DHT22;44257;44.804;10.220;2024-02-21T00:18:08;7.30;99.90
58469;DHT22;44257;44.804;10.220;2024-02-21T00:20:36;7.30;99.90
58469;DHT22;44257;44.804;10.220;2024-02-21T00:23:02;7.30;99.90
58469;DHT22;44257;44.804;10.220;2024-02-21T00:25:32;7.30;99.90
58469;DHT22;44257;44.804;10.220;2024-02-21T00:27:58;7.20;99.90
58469;DHT22;44257;44.804;10.220;2024-02-21T00:30:24;7.20;99.90
58469;DHT22;44257;44.804;10.220;2024-02-21T00:32:49;7.20;99.90
58469;DHT22;44257;44.804;10.220;2024-02-21T00:35:15;7.20;99.90
58469;DHT22;44257;44.804;10.220;2024-02-21T00:37:41;7.20;99.90
58469;DHT22;44257;44.804;10.220;2024-02-21T00:40:07;7.20;99.90
58469;DHT22;44257;44.804;10.220;2024-02-21T00:42:33;7.20;99.90
58469;DHT22;44257;44.804;10.220;2024-02-21T00:44:59;7.20;99.90
58469;DHT22;44257;44.804;10.220;2024-02-21T00:47:25;7.20;99.90
58469;DHT22;44257;44.804;10.220;2024-02-21T00:49:51;7.20;99.90
58469;DHT22;44257;44.804;10.220;2024-02-21T00:52:17;7.10;99.90
58469;DHT22;44257;44.804;10.220;2024-02-21T00:54:43;7.10;99.90
58469;DHT22;44257;44.804;10.220;2024-02-21T00:57:09;7.10;99.90
58469;DHT22;44257;44.804;10.220;2024-02-21T00:59:35;7.10;99.90
58469;DHT22;44257;44.804;10.220;2024-02-21T01:02:01;7.10;99.90
58469;DHT22;44257;44.804;10.220;2024-02-21T01:04:27;7.00;99.90
58469;DHT22;44257;44.804;10.220;2024-02-21T01:06:53;6.90;99.90
58469;DHT22;44257;44.804;10.220;2024-02-21T01:09:18;6.90;99.90
58469;DHT22;44257;44.804;10.220;2024-02-21T01:11:44;6.90;99.90
58469;DHT22;44257;44.804;10.220;2024-02-21T01:14:10;6.80;99.90
58469;DHT22;44257;44.804;10.220;2024-02-21T01:16:37;6.80;99.90
58469;DHT22;44257;44.804;10.220;2024-02-21T01:19:03;6.70;99.90
58469;DHT22;44257;44.804;10.220;2024-02-21T01:21:29;6.70;99.90
58469;DHT22;44257;44.804;10.220;2024-02-21T01:23:54;6.60;99.90
58469;DHT22;44257;44.804;10.220;2024-02-21T01:26:20;6.60;99.90
58469;DHT22;44257;44.804;10.220;2024-02-21T01:28:46;6.60;99.90
58469;DHT22;44257;44.804;10.220;2024-02-21T01:31:13;6.60;99.90
58469;DHT22;44257;44.804;10.220;2024-02-21T01:33:40;6.60;99.90
58469;DHT22;44257;44.804;10.220;2024-02-21T01:36:06;6.60;99.90
58469;DHT22;44257;44.804;10.220;2024-02-21T01:38:33;6.50;99.90
58469;DHT22;44257;44.804;10.220;2024-02-21T01:40:59;6.40;99.90
58469;DHT22;44257;44.804;10.220;2024-02-21T01:43:24;6.40;99.90
58469;DHT22;44257;44.804;10.220;2024-02-21T01:45:52;6.40;99.90
58469;DHT22;44257;44.804;10.220;2024-02-21T01:48:19;6.30;99.90
58469;DHT22;44257;44.804;10.220;2024-02-21T01:50:46;6.40;99.90
58469;DHT22;44257;44.804;10.220;2024-02-21T01:53:36;6.30;99.90
58469;DHT22;44257;44.804;10.220;2024-02-21T01:56:04;6.30;99.90
58469;DHT22;44257;44.804;10.220;2024-02-21T01:58:31;6.30;99.90
58469;DHT22;44257;44.804;10.220;2024-02-21T02:00:59;6.20;99.90
58469;DHT22;44257;44.804;10.220;2024-02-21T02:03:25;6.20;99.90
58469;DHT22;44257;44.804;10.220;2024-02-21T02:05:51;6.10;99.90
58469;DHT22;44257;44.804;10.220;2024-02-21T02:08:19;6.10;99.90
58469;DHT22;44257;44.804;10.220;2024-02-21T02:10:45;6.10;99.90
58469;DHT22;44257;44.804;10.220;2024-02-21T02:13:11;6.10;99.90
58469;DHT22;44257;44.804;10.220;2024-02-21T02:15:41;6.10;99.90
58469;DHT22;44257;44.804;10.220;2024-02-21T02:18:07;6.10;99.90
58469;DHT22;44257;44.804;10.220;2024-02-21T02:20:34;6.10;99.90
58469;DHT22;44257;44.804;10.220;2024-02-21T02:23:07;6.10;99.90
58469;DHT22;44257;44.804;10.220;2024-02-21T02:25:38;6.10;99.90
58469;DHT22;44257;44.804;10.220;2024-02-21T02:28:05;6.10;99.90
58469;DHT22;44257;44.804;10.220;2024-02-21T02:30:32;6.00;99.90
58469;DHT22;44257;44.804;10.220;2024-02-21T02:32:59;6.00;99.90
58469;DHT22;44257;44.804;10.220;2024-02-21T02:35:25;5.90;99.90
58469;DHT22;44257;44.804;10.220;2024-02-21T02:37:51;5.90;99.90
58469;DHT22;44257;44.804;10.220;2024-02-21T02:40:20;5.90;99.90
58469;DHT22;44257;44.804;10.220;2024-02-21T02:42:46;5.90;99.90
58469;DHT22;44257;44.804;10.220;2024-02-21T02:45:12;5.90;99.90
58469;DHT22;44257;44.804;10.220;2024-02-21T02:47:39;5.90;99.90
58469;DHT22;44257;44.804;10.220;2024-02-21T02:50:06;5.90;99.90
58469;DHT22;44257;44.804;10.220;2024-02-21T02:52:32;5.80;99.90
58469;DHT22;44257;44.804;10.220;2024-02-21T02:54:58;5.80;99.90
58469;DHT22;44257;44.804;10.220;2024-02-21T02:57:24;5.80;99.90
58469;DHT22;44257;44.804;10.220;2024-02-21T02:59:51;5.80;99.90
58469;DHT22;44257;44.804;10.220;2024-02-21T03:02:17;5.80;99.90
58469;DHT22;44257;44.804;10.220;2024-02-21T03:04:44;5.80;99.90
58469;DHT22;44257;44.804;10.220;2024-02-21T03:07:09;5.80;99.90
58469;DHT22;44257;44.804;10.220;2024-02-21T03:09:37;5.80;99.90
58469;DHT22;44257;44.804;10.220;2024-02-21T03:12:04;5.70;99.90
58469;DHT22;44257;44.804;10.220;2024-02-21T03:14:30;5.70;99.90
58469;DHT22;44257;44.804;10.220;2024-02-21T03:17:00;5.70;99.90
58469;DHT22;44257;44.804;10.220;2024-02-21T03:19:26;5.60;99.90
58469;DHT22;44257;44.804;10.220;2024-02-21T03:21:52;5.40;99.90
58469;DHT22;44257;44.804;10.220;2024-02-21T03:24:19;5.30;99.90
58469;DHT22;44257;44.804;10.220;2024-02-21T03:26:45;5.20;99.90
58469;DHT22;44257;44.804;10.220;2024-02-21T03:29:14;5.20;99.90
58469;DHT22;44257;44.804;10.220;2024-02-21T03:31:40;5.20;99.90
58469;DHT22;44257;44.804;10.220;2024-02-21T03:34:06;5.20;99.90
58469;DHT22;44257;44.804;10.220;2024-02-21T03:36:31;5.20;99.90
58469;DHT22;44257;44.804;10.220;2024-02-21T03:38:57;5.20;99.90
58469;DHT22;44257;44.804;10.220;2024-02-21T03:41:23;5.20;99.90
58469;DHT22;44257;44.804;10.220;2024-02-21T03:43:49;5.20;99.90
58469;DHT22;44257;44.804;10.220;2024-02-21T03:46:15;5.20;99.90
58469;DHT22;44257;44.804;10.220;2024-02-21T03:48:41;5.20;99.90
58469;DHT22;44257;44.804;10.220;2024-02-21T03:51:07;5.10;99.90
58469;DHT22;44257;44.804;10.220;2024-02-21T03:53:33;5.10;99.90
58469;DHT22;44257;44.804;10.220;2024-02-21T03:56:02;5.10;99.90
58469;DHT22;44257;44.804;10.220;2024-02-21T03:58:30;5.00;99.90
58469;DHT22;44257;44.804;10.220;2024-02-21T04:00:56;5.10;99.90
58469;DHT22;44257;44.804;10.220;2024-02-21T04:03:22;5.00;99.90
58469;DHT22;44257;44.804;10.220;2024-02-21T04:05:48;5.00;99.90
58469;DHT22;44257;44.804;10.220;2024-02-21T04:08:14;5.00;99.90
58469;DHT22;44257;44.804;10.220;2024-02-21T04:10:40;5.10;99.90
58469;DHT22;44257;44.804;10.220;2024-02-21T04:13:06;5.00;99.90
58469;DHT22;44257;44.804;10.220;2024-02-21T04:15:33;5.00;99.90
58469;DHT22;44257;44.804;10.220;2024-02-21T04:17:58;4.90;99.90
58469;DHT22;44257;44.804;10.220;2024-02-21T04:20:24;4.90;99.90
58469;DHT22;44257;44.804;10.220;2024-02-21T04:22:50;4.90;99.90
58469;DHT22;44257;44.804;10.220;2024-02-21T04:25:16;4.90;99.90
58469;DHT22;44257;44.804;10.220;2024-02-21T04:27:42;4.80;99.90
58469;DHT22;44257;44.804;10.220;2024-02-21T04:30:09;4.80;99.90
58469;DHT22;44257;44.804;10.220;2024-02-21T04:32:35;4.80;99.90
58469;DHT22;44257;44.804;10.220;2024-02-21T04:35:01;4.70;99.90
58469;DHT22;44257;44.804;10.220;2024-02-21T04:37:27;4.70;99.90
58469;DHT22;44257;44.804;10.220;2024-02-21T04:39:53;4.70;99.90
58469;DHT22;44257;44.804;10.220;2024-02-21T04:42:19;4.80;99.90
58469;DHT22;44257;44.804;10.220;2024-02-21T04:44:45;4.90;99.90
58469;DHT22;44257;44.804;10.220;2024-02-21T04:47:11;4.90;99.90
58469;DHT22;44257;44.804;10.220;2024-02-21T04:49:37;4.90;99.90
58469;DHT22;44257;44.804;10.220;2024-02-21T04:52:03;4.80;99.90
58469;DHT22;44257;44.804;10.220;2024-02-21T04:54:29;4.80;99.90
58469;DHT22;44257;44.804;10.220;2024-02-21T04:56:54;4.80;99.90
58469;DHT22;44257;44.804;10.220;2024-02-21T04:59:20;4.80;99.90
58469;DHT22;44257;44.804;10.220;2024-02-21T05:01:46;4.70;99.90
58469;DHT22;44257;44.804;10.220;2024-02-21T05:04:12;4.70;99.90
58469;DHT22;44257;44.804;10.220;2024-02-21T05:06:39;4.70;99.90
58469;DHT22;44257;44.804;10.220;2024-02-21T05:09:06;4.60;99.90
58469;DHT22;44257;44.804;10.220;2024-02-21T05:11:32;4.60;99.90
58469;DHT22;44257;44.804;10.220;2024-02-21T05:13:58;4.50;99.90
58469;DHT22;44257;44.804;10.220;2024-02-21T05:16:24;4.40;99.90
58469;DHT22;44257;44.804;10.220;2024-02-21T05:18:50;4.30;99.90
58469;DHT22;44257;44.804;10.220;2024-02-21T05:21:15;4.30;99.90
58469;DHT22;44257;44.804;10.220;2024-02-21T05:23:41;4.30;99.90
58469;DHT22;44257;44.804;10.220;2024-02-21T05:26:07;4.40;99.90
58469;DHT22;44257;44.804;10.220;2024-02-21T05:28:33;4.40;99.90
58469;DHT22;44257;44.804;10.220;2024-02-21T05:30:59;4.50;99.90
58469;DHT22;44257;44.804;10.220;2024-02-21T05:33:25;4.50;99.90
58469;DHT22;44257;44.804;10.220;2024-02-21T05:35:51;4.40;99.90
58469;DHT22;44257;44.804;10.220;2024-02-21T05:38:17;4.40;99.90
58469;DHT22;44257;44.804;10.220;2024-02-21T05:40:45;4.30;99.90
58469;DHT22;44257;44.804;10.220;2024-02-21T05:43:11;4.30;99.90
58469;DHT22;44257;44.804;10.220;2024-02-21T05:45:37;4.30;99.90
58469;DHT22;44257;44.804;10.220;2024-02-21T05:48:04;4.30;99.90
58469;DHT22;44257;44.804;10.220;2024-02-21T05:50:30;4.30;99.90
58469;DHT22;44257;44.804;10.220;2024-02-21T05:52:56;4.30;99.90
58469;DHT22;44257;44.804;10.220;2024-02-21T05:55:22;4.30;99.90
58469;DHT22;44257;44.804;10.220;2024-02-21T05:57:48;4.40;99.90
58469;DHT22;44257;44.804;10.220;2024-02-21T06:00:15;4.50;99.90
58469;DHT22;44257;44.804;10.220;2024-02-21T06:02:41;4.50;99.90
58469;DHT22;44257;44.804;10.220;2024-02-21T06:05:08;4.50;99.90
58469;DHT22;44257;44.804;10.220;2024-02-21T06:07:34;4.50;99.90
58469;DHT22;44257;44.804;10.220;2024-02-21T06:10:01;4.40;99.90
58469;DHT22;44257;44.804;10.220;2024-02-21T06:12:27;4.30;99.90
58469;DHT22;44257;44.804;10.220;2024-02-21T06:14:53;4.20;99.90
58469;DHT22;44257;44.804;10.220;2024-02-21T06:17:19;4.20;99.90
58469;DHT22;44257;44.804;10.220;2024-02-21T06:19:45;4.10;99.90
58469;DHT22;44257;44.804;10.220;2024-02-21T06:22:11;4.10;99.90
58469;DHT22;44257;44.804;10.220;2024-02-21T06:24:38;4.10;99.90
58469;DHT22;44257;44.804;10.220;2024-02-21T06:27:08;4.10;99.90
58469;DHT22;44257;44.804;10.220;2024-02-21T06:29:34;4.20;99.90
58469;DHT22;44257;44.804;10.220;2024-02-21T06:32:01;4.20;99.90
58469;DHT22;44257;44.804;10.220;2024-02-21T06:34:27;4.30;99.90
58469;DHT22;44257;44.804;10.220;2024-02-21T06:36:54;4.40;99.90
58469;DHT22;44257;44.804;10.220;2024-02-21T06:39:19;4.50;99.90
58469;DHT22;44257;44.804;10.220;2024-02-21T06:41:45;4.60;99.90
58469;DHT22;44257;44.804;10.220;2024-02-21T06:44:12;4.60;99.90
58469;DHT22;44257;44.804;10.220;2024-02-21T06:46:38;4.70;99.90
58469;DHT22;44257;44.804;10.220;2024-02-21T06:49:04;4.80;99.90
58469;DHT22;44257;44.804;10.220;2024-02-21T06:51:30;4.80;99.90
58469;DHT22;44257;44.804;10.220;2024-02-21T06:53:56;4.90;99.90
58469;DHT22;44257;44.804;10.220;2024-02-21T06:56:25;5.10;99.90
58469;DHT22;44257;44.804;10.220;2024-02-21T06:58:56;5.20;99.90
58469;DHT22;44257;44.804;10.220;2024-02-21T07:01:26;5.40;99.90
58469;DHT22;44257;44.804;10.220;2024-02-21T07:03:52;5.50;99.90
58469;DHT22;44257;44.804;10.220;2024-02-21T07:06:18;5.60;99.90
58469;DHT22;44257;44.804;10.220;2024-02-21T07:08:43;5.70;99.90
58469;DHT22;44257;44.804;10.220;2024-02-21T07:11:09;5.90;99.90
58469;DHT22;44257;44.804;10.220;2024-02-21T07:13:36;6.10;99.90
58469;DHT22;44257;44.804;10.220;2024-02-21T07:16:02;6.20;99.90
58469;DHT22;44257;44.804;10.220;2024-02-21T07:18:28;6.40;99.90
58469;DHT22;44257;44.804;10.220;2024-02-21T07:20:54;6.60;99.90
58469;DHT22;44257;44.804;10.220;2024-02-21T07:23:20;6.60;99.90
58469;DHT22;44257;44.804;10.220;2024-02-21T07:25:46;6.80;99.90
58469;DHT22;44257;44.804;10.220;2024-02-21T07:28:11;6.90;99.90
58469;DHT22;44257;44.804;10.220;2024-02-21T07:30:39;7.00;99.90
58469;DHT22;44257;44.804;10.220;2024-02-21T07:33:05;7.10;99.90
58469;DHT22;44257;44.804;10.220;2024-02-21T07:35:33;7.20;99.90
58469;DHT22;44257;44.804;10.220;2024-02-21T07:37:58;7.30;99.90
58469;DHT22;44257;44.804;10.220;2024-02-21T07:40:24;7.50;99.90
58469;DHT22;44257;44.804;10.220;2024-02-21T07:42:50;7.60;99.90
58469;DHT22;44257;44.804;10.220;2024-02-21T07:45:16;7.70;99.90
58469;DHT22;44257;44.804;10.220;2024-02-21T07:47:44;7.90;99.90
58469;DHT22;44257;44.804;10.220;2024-02-21T07:50:10;8.00;99.90
58469;DHT22;44257;44.804;10.220;2024-02-21T07:52:35;8.20;99.90
58469;DHT22;44257;44.804;10.220;2024-02-21T07:55:01;8.30;99.90
58469;DHT22;44257;44.804;10.220;2024-02-21T07:57:28;8.40;99.90
58469;DHT22;44257;44.804;10.220;2024-02-21T07:59:54;8.30;99.90
58469;DHT22;44257;44.804;10.220;2024-02-21T08:02:20;8.20;99.90
58469;DHT22;44257;44.804;10.220;2024-02-21T08:04:46;8.30;99.90
58469;DHT22;44257;44.804;10.220;2024-02-21T08:07:12;8.40;99.90
58469;DHT22;44257;44.804;10.220;2024-02-21T08:09:39;8.60;99.90
58469;DHT22;44257;44.804;10.220;2024-02-21T08:12:06;8.60;99.90
58469;DHT22;44257;44.804;10.220;2024-02-21T08:14:32;8.60;99.90
58469;DHT22;44257;44.804;10.220;2024-02-21T08:16:58;8.60;99.90
58469;DHT22;44257;44.804;10.220;2024-02-21T08:19:27;8.50;99.90
58469;DHT22;44257;44.804;10.220;2024-02-21T08:21:53;8.50;99.90
58469;DHT22;44257;44.804;10.220;2024-02-21T08:24:19;8.60;99.90
58469;DHT22;44257;44.804;10.220;2024-02-21T08:26:45;8.70;99.90
58469;DHT22;44257;44.804;10.220;2024-02-21T08:29:12;8.80;99.90
58469;DHT22;44257;44.804;10.220;2024-02-21T08:31:37;8.90;99.90
58469;DHT22;44257;44.804;10.220;2024-02-21T08:34:03;8.90;99.90
58469;DHT22;44257;44.804;10.220;2024-02-21T08:36:31;9.00;99.90
58469;DHT22;44257;44.804;10.220;2024-02-21T08:38:58;9.30;99.90
58469;DHT22;44257;44.804;10.220;2024-02-21T08:41:24;9.60;99.90
58469;DHT22;44257;44.804;10.220;2024-02-21T08:43:51;9.80;99.90
58469;DHT22;44257;44.804;10.220;2024-02-21T08:46:25;10.00;99.90
58469;DHT22;44257;44.804;10.220;2024-02-21T08:48:53;10.10;99.90
58469;DHT22;44257;44.804;10.220;2024-02-21T08:51:19;10.20;99.90
58469;DHT22;44257;44.804;10.220;2024-02-21T08:53:45;10.30;99.90
58469;DHT22;44257;44.804;10.220;2024-02-21T08:56:11;10.30;99.90
58469;DHT22;44257;44.804;10.220;2024-02-21T08:58:39;10.30;99.90
58469;DHT22;44257;44.804;10.220;2024-02-21T09:01:06;10.40;99.90
58469;DHT22;44257;44.804;10.220;2024-02-21T09:03:39;10.50;99.90
58469;DHT22;44257;44.804;10.220;2024-02-21T09:06:06;10.50;99.90
58469;DHT22;44257;44.804;10.220;2024-02-21T09:08:33;10.70;99.90
58469;DHT22;44257;44.804;10.220;2024-02-21T09:11:00;10.90;99.90
58469;DHT22;44257;44.804;10.220;2024-02-21T09:13:28;11.00;99.90
58469;DHT22;44257;44.804;10.220;2024-02-21T09:15:55;11.20;99.90
58469;DHT22;44257;44.804;10.220;2024-02-21T09:18:21;11.40;99.90
58469;DHT22;44257;44.804;10.220;2024-02-21T09:20:47;11.40;99.90
58469;DHT22;44257;44.804;10.220;2024-02-21T09:23:13;11.40;99.90
58469;DHT22;44257;44.804;10.220;2024-02-21T09:25:39;11.40;99.90
58469;DHT22;44257;44.804;10.220;2024-02-21T09:28:05;11.50;99.90
58469;DHT22;44257;44.804;10.220;2024-02-21T09:30:34;11.60;99.90
58469;DHT22;44257;44.804;10.220;2024-02-21T09:33:00;11.60;99.90
58469;DHT22;44257;44.804;10.220;2024-02-21T09:35:28;11.70;99.90
58469;DHT22;44257;44.804;10.220;2024-02-21T09:37:54;11.70;99.90
58469;DHT22;44257;44.804;10.220;2024-02-21T09:40:20;11.70;99.90
58469;DHT22;44257;44.804;10.220;2024-02-21T09:42:47;11.80;99.90
58469;DHT22;44257;44.804;10.220;2024-02-21T09:45:26;11.90;99.90
58469;DHT22;44257;44.804;10.220;2024-02-21T09:50:38;11.90;99.90
58469;DHT22;44257;44.804;10.220;2024-02-21T09:53:06;11.90;99.90
58469;DHT22;44257;44.804;10.220;2024-02-21T09:55:37;11.90;99.90
58469;DHT22;44257;44.804;10.220;2024-02-21T09:58:05;11.90;99.90
58469;DHT22;44257;44.804;10.220;2024-02-21T10:00:32;11.90;99.90
58469;DHT22;44257;44.804;10.220;2024-02-21T10:02:59;12.00;99.90
58469;DHT22;44257;44.804;10.220;2024-02-21T10:05:25;12.10;99.90
58469;DHT22;44257;44.804;10.220;2024-02-21T10:07:51;12.10;99.90
58469;DHT22;44257;44.804;10.220;2024-02-21T10:10:17;12.20;99.90
58469;DHT22;44257;44.804;10.220;2024-02-21T10:12:53;12.30;99.90
58469;DHT22;44257;44.804;10.220;2024-02-21T10:15:24;12.50;99.90
58469;DHT22;44257;44.804;10.220;2024-02-21T10:17:58;12.50;99.90
58469;DHT22;44257;44.804;10.220;2024-02-21T10:20:24;12.70;99.90
58469;DHT22;44257;44.804;10.220;2024-02-21T10:23:03;12.90;99.90
58469;DHT22;44257;44.804;10.220;2024-02-21T10:25:34;12.90;99.90
58469;DHT22;44257;44.804;10.220;2024-02-21T10:28:01;12.90;99.90
58469;DHT22;44257;44.804;10.220;2024-02-21T10:30:28;13.00;99.90
58469;DHT22;44257;44.804;10.220;2024-02-21T10:32:54;13.00;99.90
58469;DHT22;44257;44.804;10.220;2024-02-21T10:35:33;12.90;99.90
58469;DHT22;44257;44.804;10.220;2024-02-21T10:37:59;12.90;99.90
58469;DHT22;44257;44.804;10.220;2024-02-21T10:40:27;12.90;99.90
58469;DHT22;44257;44.804;10.220;2024-02-21T10:42:59;13.00;99.90
58469;DHT22;44257;44.804;10.220;2024-02-21T10:45:36;13.00;99.90
58469;DHT22;44257;44.804;10.220;2024-02-21T10:48:12;13.10;99.90
58469;DHT22;44257;44.804;10.220;2024-02-21T10:50:53;13.10;99.90
58469;DHT22;44257;44.804;10.220;2024-02-21T10:56:33;13.10;99.90
58469;DHT22;44257;44.804;10.220;2024-02-21T10:59:06;13.10;99.90
58469;DHT22;44257;44.804;10.220;2024-02-21T11:01:33;13.10;99.90
58469;DHT22;44257;44.804;10.220;2024-02-21T11:04:05;13.20;99.90
58469;DHT22;44257;44.804;10.220;2024-02-21T11:06:37;13.30;99.90
58469;DHT22;44257;44.804;10.220;2024-02-21T11:09:05;13.50;99.90
58469;DHT22;44257;44.804;10.220;2024-02-21T11:11:41;13.60;99.90
58469;DHT22;44257;44.804;10.220;2024-02-21T11:14:10;13.80;99.90
58469;DHT22;44257;44.804;10.220;2024-02-21T11:19:08;14.00;99.90
58469;DHT22;44257;44.804;10.220;2024-02-21T11:21:39;14.20;99.90
58469;DHT22;44257;44.804;10.220;2024-02-21T11:24:07;14.30;99.90
58469;DHT22;44257;44.804;10.220;2024-02-21T11:26:33;14.50;99.90
58469;DHT22;44257;44.804;10.220;2024-02-21T11:29:02;14.60;99.90
58469;DHT22;44257;44.804;10.220;2024-02-21T11:31:40;14.60;99.90
58469;DHT22;44257;44.804;10.220;2024-02-21T11:34:13;14.70;99.90
58469;DHT22;44257;44.804;10.220;2024-02-21T11:36:52;14.70;99.90
58469;DHT22;44257;44.804;10.220;2024-02-21T11:39:22;14.80;99.90
58469;DHT22;44257;44.804;10.220;2024-02-21T11:42:08;14.70;99.90
58469;DHT22;44257;44.804;10.220;2024-02-21T11:44:35;14.70;99.90
58469;DHT22;44257;44.804;10.220;2024-02-21T11:47:06;14.60;99.90
58469;DHT22;44257;44.804;10.220;2024-02-21T11:49:38;14.60;99.90
58469;DHT22;44257;44.804;10.220;2024-02-21T11:52:07;14.70;99.90
58469;DHT22;44257;44.804;10.220;2024-02-21T11:54:34;14.90;99.90
58469;DHT22;44257;44.804;10.220;2024-02-21T11:57:00;15.00;99.90
58469;DHT22;44257;44.804;10.220;2024-02-21T11:59:29;15.00;99.90
58469;DHT22;44257;44.804;10.220;2024-02-21T12:01:58;15.10;99.90
58469;DHT22;44257;44.804;10.220;2024-02-21T12:04:24;15.10;99.90
58469;DHT22;44257;44.804;10.220;2024-02-21T12:06:52;15.20;99.90
58469;DHT22;44257;44.804;10.220;2024-02-21T12:09:18;15.10;99.90
58469;DHT22;44257;44.804;10.220;2024-02-21T12:11:45;15.10;99.90
58469;DHT22;44257;44.804;10.220;2024-02-21T12:14:16;15.10;99.90
58469;DHT22;44257;44.804;10.220;2024-02-21T12:16:42;15.10;99.90
58469;DHT22;44257;44.804;10.220;2024-02-21T12:19:13;15.20;99.90
58469;DHT22;44257;44.804;10.220;2024-02-21T12:21:39;15.30;99.90
58469;DHT22;44257;44.804;10.220;2024-02-21T12:24:14;15.30;99.90
58469;DHT22;44257;44.804;10.220;2024-02-21T12:26:40;15.40;99.90
58469;DHT22;44257;44.804;10.220;2024-02-21T12:29:07;15.50;99.90
58469;DHT22;44257;44.804;10.220;2024-02-21T12:31:38;15.60;99.90
58469;DHT22;44257;44.804;10.220;2024-02-21T12:34:05;15.50;99.90
58469;DHT22;44257;44.804;10.220;2024-02-21T12:36:32;15.40;99.90
58469;DHT22;44257;44.804;10.220;2024-02-21T12:38:58;15.40;99.90
58469;DHT22;44257;44.804;10.220;2024-02-21T12:41:24;15.50;99.90
58469;DHT22;44257;44.804;10.220;2024-02-21T12:43:53;15.50;99.90
58469;DHT22;44257;44.804;10.220;2024-02-21T12:46:19;15.70;99.90
58469;DHT22;44257;44.804;10.220;2024-02-21T12:48:45;15.90;99.90
58469;DHT22;44257;44.804;10.220;2024-02-21T12:51:11;16.00;99.90
58469;DHT22;44257;44.804;10.220;2024-02-21T12:53:37;16.00;99.90
58469;DHT22;44257;44.804;10.220;2024-02-21T12:56:03;15.90;99.90
58469;DHT22;44257;44.804;10.220;2024-02-21T12:58:30;15.90;99.90
58469;DHT22;44257;44.804;10.220;2024-02-21T13:00:57;15.90;99.90
58469;DHT22;44257;44.804;10.220;2024-02-21T13:03:23;15.90;99.90
58469;DHT22;44257;44.804;10.220;2024-02-21T13:05:49;16.00;99.90
58469;DHT22;44257;44.804;10.220;2024-02-21T13:08:15;16.20;99.90
58469;DHT22;44257;44.804;10.220;2024-02-21T13:10:41;16.30;99.90
58469;DHT22;44257;44.804;10.220;2024-02-21T13:13:07;16.50;99.90
58469;DHT22;44257;44.804;10.220;2024-02-21T13:15:33;16.60;99.90
58469;DHT22;44257;44.804;10.220;2024-02-21T13:18:00;16.50;99.90
58469;DHT22;44257;44.804;10.220;2024-02-21T13:20:26;16.40;99.90
58469;DHT22;44257;44.804;10.220;2024-02-21T13:22:52;16.40;99.90
58469;DHT22;44257;44.804;10.220;2024-02-21T13:25:18;16.50;99.90
58469;DHT22;44257;44.804;10.220;2024-02-21T13:27:47;16.50;99.90
58469;DHT22;44257;44.804;10.220;2024-02-21T13:30:14;16.60;99.90
58469;DHT22;44257;44.804;10.220;2024-02-21T13:32:47;16.80;99.90
58469;DHT22;44257;44.804;10.220;2024-02-21T13:35:13;17.00;99.90
58469;DHT22;44257;44.804;10.220;2024-02-21T13:37:40;17.00;99.90
58469;DHT22;44257;44.804;10.220;2024-02-21T13:40:07;17.00;99.90
58469;DHT22;44257;44.804;10.220;2024-02-21T13:42:40;17.00;99.90
58469;DHT22;44257;44.804;10.220;2024-02-21T13:45:06;16.90;99.90
58469;DHT22;44257;44.804;10.220;2024-02-21T13:47:33;16.90;99.90
58469;DHT22;44257;44.804;10.220;2024-02-21T13:49:59;16.90;99.90
58469;DHT22;44257;44.804;10.220;2024-02-21T13:52:26;17.00;99.90
58469;DHT22;44257;44.804;10.220;2024-02-21T13:54:52;17.10;99.90
58469;DHT22;44257;44.804;10.220;2024-02-21T13:57:18;17.20;99.90
58469;DHT22;44257;44.804;10.220;2024-02-21T13:59:44;17.20;99.90
58469;DHT22;44257;44.804;10.220;2024-02-21T14:02:10;17.30;99.90
58469;DHT22;44257;44.804;10.220;2024-02-21T14:04:36;17.50;99.90
58469;DHT22;44257;44.804;10.220;2024-02-21T14:07:02;17.50;99.90
58469;DHT22;44257;44.804;10.220;2024-02-21T14:09:28;17.60;99.90
58469;DHT22;44257;44.804;10.220;2024-02-21T14:11:58;17.50;99.90
58469;DHT22;44257;44.804;10.220;2024-02-21T14:14:24;17.50;99.90
58469;DHT22;44257;44.804;10.220;2024-02-21T14:16:49;17.60;99.90
58469;DHT22;44257;44.804;10.220;2024-02-21T14:19:15;17.60;99.90
58469;DHT22;44257;44.804;10.220;2024-02-21T14:21:41;17.70;99.90
58469;DHT22;44257;44.804;10.220;2024-02-21T14:24:07;17.80;99.90
58469;DHT22;44257;44.804;10.220;2024-02-21T14:26:33;17.80;99.90
58469;DHT22;44257;44.804;10.220;2024-02-21T14:29:01;17.70;99.90
58469;DHT22;44257;44.804;10.220;2024-02-21T14:31:31;17.60;99.90
58469;DHT22;44257;44.804;10.220;2024-02-21T14:33:57;17.60;99.90
58469;DHT22;44257;44.804;10.220;2024-02-21T14:36:23;17.60;99.90
58469;DHT22;44257;44.804;10.220;2024-02-21T14:38:49;17.50;99.90
58469;DHT22;44257;44.804;10.220;2024-02-21T14:41:17;17.50;99.90
58469;DHT22;44257;44.804;10.220;2024-02-21T14:43:43;17.50;99.90
58469;DHT22;44257;44.804;10.220;2024-02-21T14:46:10;17.50;99.90
58469;DHT22;44257;44.804;10.220;2024-02-21T14:48:38;17.60;99.90
58469;DHT22;44257;44.804;10.220;2024-02-21T14:51:04;17.70;99.90
58469;DHT22;44257;44.804;10.220;2024-02-21T14:53:30;17.70;99.90
58469;DHT22;44257;44.804;10.220;2024-02-21T14:55:56;17.80;99.90
58469;DHT22;44257;44.804;10.220;2024-02-21T14:58:23;17.90;99.90
58469;DHT22;44257;44.804;10.220;2024-02-21T15:00:49;18.00;99.90
58469;DHT22;44257;44.804;10.220;2024-02-21T15:03:18;18.00;99.90
58469;DHT22;44257;44.804;10.220;2024-02-21T15:05:47;18.00;99.90
58469;DHT22;44257;44.804;10.220;2024-02-21T15:08:13;18.00;99.90
58469;DHT22;44257;44.804;10.220;2024-02-21T15:10:43;18.00;99.90
58469;DHT22;44257;44.804;10.220;2024-02-21T15:13:09;17.90;99.90
58469;DHT22;44257;44.804;10.220;2024-02-21T15:15:35;17.80;99.90
58469;DHT22;44257;44.804;10.220;2024-02-21T15:18:00;17.60;99.90
58469;DHT22;44257;44.804;10.220;2024-02-21T15:20:26;17.50;99.90
58469;DHT22;44257;44.804;10.220;2024-02-21T15:22:53;17.30;99.90
58469;DHT22;44257;44.804;10.220;2024-02-21T15:25:20;17.30;99.90
58469;DHT22;44257;44.804;10.220;2024-02-21T15:27:46;17.20;99.90
58469;DHT22;44257;44.804;10.220;2024-02-21T15:30:13;17.20;99.90
58469;DHT22;44257;44.804;10.220;2024-02-21T15:32:39;17.00;99.90